Capitol Logistics 405




KBNA
Nashville International Airport
Nashville, Tennessee
KMIA
Miami International Airport
Miami, Florida

Activity Log

Date Flight Route Aircraft Duration
07/18/2020 CPX405 TIPPN3 BRXTN BULZI NICKI Q81 ENDEW JUULI SSCOT5 B752 2h 04m
11/27/2019 CPX405 TIPPN3 BRXTN OTK SSCOT4 B738 2h 06m
06/14/2019 CPX405 TIPPN3 BRXTN BULZI NICKI Q81 ENDEW JUULI SSCOT5 B752 2h 18m
03/30/2019 CPX405 TIPPN3 BRXTN BULZI NICKI Q81 ENDEW JUULI SSCOT5 B752 1h 58m
03/30/2019 CPX405 TIPPN3 BRXTN BULZI NICKI Q81 ENDEW JUULI SSCOT5 B752 2h 16m

Route Details

Aircraft Information
Primary: Boeing 737-800BCF
Backup: Boeing 757-200SF
Route Data
Distance: 702nm
Duration: 1h 58m
Recm'd Route: TIPPN3 BRXTN BULZI NICKI Q81 ENDEW JUULI SSCOT5
Origin Wx: KBNA 180153Z 32004KT 10SM BKN090 14/06 A2997 RMK AO2 SLP145 T01390056
Dest. Wx: KMIA 180153Z 28006KT 10SM CLR 26/18 A2991 RMK AO2 SLP128 T02610178 $
Notes: